MRLB - Daniel Oduber Quiros Intl.
MRLB 050400Z 25002KT CAVOK 24/19 A2985
Observed:
Wind:
visibility:
Flight Rules:
Cloud Levels:
Temperature:
Humidity:
Pressure: